Arvada, Colorado
Current Conditions -  °F | °C
As of 5:48 PM on Sunday 23 Nov 2014 (Local Time) from KBJC Reporting Station
Rain Showers Rain Showers  
Wind Chill: 24°   Ceiling: 5000
Heat Index: 30°   Visibility: 20mi
Dew Point: 19°   Wind: 6mph
Humidity: 64%   Direction: 270°W
Pressure: 29.9"   Gusts: NA
Location:  39.8°N, 105.08°W
Report Text: KBJC 240048Z 27005KT 20SM VCSH SCT008 BKN050 M01/M07 A2990
Loading
Personal Weather Stations






























Interactive Weather Map New forecast layout! Learn more

10-Day Weather Forecast

Advertisements
Track Severe Weather on mobile